createdAt,value
2018-07-25T00:01:12.042Z,96448.64
2018-07-25T00:04:36.768Z,96453.98
2018-07-25T00:08:01.496Z,96454.15
2018-07-25T00:11:26.222Z,96452.00
2018-07-25T00:14:50.968Z,96445.28
2018-07-25T00:18:15.689Z,96444.80
2018-07-25T00:21:40.397Z,96444.86
2018-07-25T00:25:05.117Z,96452.28
2018-07-25T00:28:29.901Z,96447.51
2018-07-25T00:31:54.603Z,96448.77
2018-07-25T00:35:19.333Z,96446.90
2018-07-25T00:38:44.109Z,96446.34
2018-07-25T00:42:08.934Z,96443.16
2018-07-25T00:45:33.783Z,96444.86
2018-07-25T00:48:58.468Z,96449.30
2018-07-25T00:52:24.169Z,96447.80
2018-07-25T00:55:48.790Z,96441.44
2018-07-25T00:59:13.476Z,96456.06
2018-07-25T01:02:38.132Z,96447.14
2018-07-25T01:06:02.911Z,96454.97
2018-07-25T01:09:27.656Z,96457.82
2018-07-25T01:12:52.416Z,96455.52
2018-07-25T01:16:17.098Z,96460.08
2018-07-25T01:19:41.838Z,96464.45
2018-07-25T01:23:06.781Z,96461.59
2018-07-25T01:26:31.444Z,96463.81
2018-07-25T01:29:56.136Z,96461.14
2018-07-25T01:33:20.864Z,96473.34
2018-07-25T01:36:45.244Z,96473.98
2018-07-25T01:40:10.099Z,96475.09
2018-07-25T01:45:03.844Z,96477.97
2018-07-25T01:48:28.584Z,96476.53
2018-07-25T01:51:53.262Z,96475.25
2018-07-25T01:55:18.044Z,96476.55
2018-07-25T01:58:42.732Z,96479.73
2018-07-25T02:02:07.513Z,96478.97
2018-07-25T02:05:32.176Z,96479.20
2018-07-25T02:08:57.268Z,96482.78
2018-07-25T02:12:21.630Z,96484.15
2018-07-25T02:15:46.880Z,96484.09
2018-07-25T02:19:11.623Z,96480.88
2018-07-25T02:22:36.306Z,96483.61
2018-07-25T02:26:00.966Z,96489.97
2018-07-25T02:29:25.294Z,96490.28
2018-07-25T02:32:49.994Z,96491.97
2018-07-25T02:36:14.682Z,96493.21
2018-07-25T02:39:39.412Z,96491.33
2018-07-25T02:43:04.111Z,96496.79
2018-07-25T02:46:28.801Z,96495.20
2018-07-25T02:49:53.615Z,96495.74
2018-07-25T02:53:18.259Z,96500.13
2018-07-25T02:56:46.349Z,96503.31
2018-07-25T03:00:11.002Z,96501.13
2018-07-25T03:03:35.654Z,96500.29
2018-07-25T03:07:00.380Z,96506.45
2018-07-25T03:10:25.049Z,96508.34
2018-07-25T03:13:49.772Z,96502.84
2018-07-25T03:17:14.578Z,96510.87
2018-07-25T03:20:39.278Z,96505.95
2018-07-25T03:24:27.180Z,96512.53
2018-07-25T03:27:51.884Z,96507.63
2018-07-25T03:31:16.701Z,96515.84
2018-07-25T03:34:41.313Z,96515.17
2018-07-25T03:38:06.307Z,96519.24
2018-07-25T03:41:31.007Z,96521.23
2018-07-25T03:44:55.657Z,96523.30
2018-07-25T03:48:19.989Z,96521.75
2018-07-25T03:51:44.727Z,96529.69
2018-07-25T03:55:09.406Z,96537.91
2018-07-25T03:58:34.175Z,96537.62
2018-07-25T04:01:59.083Z,96538.03
2018-07-25T04:05:23.350Z,96542.38
2018-07-25T04:08:48.282Z,96544.44
2018-07-25T04:12:13.018Z,96554.78
2018-07-25T04:15:37.332Z,96556.41
2018-07-25T04:19:02.043Z,96564.80
2018-07-25T04:22:26.775Z,96561.82
2018-07-25T04:25:51.465Z,96558.33
2018-07-25T04:29:16.123Z,96570.18
2018-07-25T04:32:41.624Z,96569.73
2018-07-25T04:36:06.451Z,96572.05
2018-07-25T04:39:31.152Z,96576.30
2018-07-25T04:42:55.851Z,96574.73
2018-07-25T04:46:20.653Z,96580.63
2018-07-25T04:49:45.297Z,96581.75
2018-07-25T04:53:09.940Z,96578.98
2018-07-25T04:56:34.648Z,96583.01
2018-07-25T04:59:59.396Z,96574.36
2018-07-25T05:03:24.124Z,96577.55
2018-07-25T05:06:48.891Z,96576.25
2018-07-25T05:10:13.642Z,96578.68
2018-07-25T05:13:38.402Z,96581.02
2018-07-25T05:17:02.691Z,96581.18
2018-07-25T05:20:27.356Z,96590.02
2018-07-25T05:23:51.779Z,96588.95
2018-07-25T05:27:16.464Z,96593.92
2018-07-25T05:30:41.181Z,96590.91
2018-07-25T05:34:06.047Z,96586.61
2018-07-25T05:37:30.814Z,96590.75
2018-07-25T05:40:55.694Z,96598.38
2018-07-25T05:44:20.440Z,96599.70
2018-07-25T05:47:45.117Z,96596.67
2018-07-25T05:51:09.882Z,96595.45
2018-07-25T05:54:34.630Z,96599.50
2018-07-25T05:57:59.308Z,96601.58
2018-07-25T06:01:25.314Z,96602.57
2018-07-25T06:04:49.990Z,96600.59
2018-07-25T06:08:14.738Z,96601.80
2018-07-25T06:11:39.785Z,96603.58
2018-07-25T06:15:04.967Z,96601.91
2018-07-25T06:18:29.851Z,96604.84
2018-07-25T06:21:54.599Z,96601.44
2018-07-25T06:25:19.333Z,96602.57
2018-07-25T06:28:44.165Z,96602.89
2018-07-25T06:32:08.837Z,96603.84
2018-07-25T06:35:33.531Z,96609.06
2018-07-25T06:39:00.730Z,96609.47
2018-07-25T06:42:28.393Z,96609.34
2018-07-25T06:45:53.681Z,96612.47
2018-07-25T06:49:18.713Z,96612.12
2018-07-25T06:52:44.330Z,96620.94
2018-07-25T06:56:09.392Z,96618.33
2018-07-25T06:59:34.625Z,96617.05
2018-07-25T07:03:00.689Z,96619.52
2018-07-25T07:06:26.606Z,96625.55
2018-07-25T07:09:52.930Z,96619.11
2018-07-25T07:13:18.849Z,96623.42
2018-07-25T07:16:44.857Z,96622.95
2018-07-25T07:20:10.204Z,96627.76
2018-07-25T07:23:34.903Z,96627.34
2018-07-25T07:27:00.668Z,96628.30
2018-07-25T07:30:26.027Z,96625.86
2018-07-25T07:33:51.395Z,96627.06
2018-07-25T07:37:16.862Z,96625.25
2018-07-25T07:40:42.148Z,96625.73
2018-07-25T07:44:06.807Z,96626.38
2018-07-25T07:47:31.359Z,96629.75
2018-07-25T07:50:56.209Z,96624.33
2018-07-25T07:54:20.997Z,96626.80
2018-07-25T07:57:45.724Z,96629.45
2018-07-25T08:01:10.383Z,96624.33
2018-07-25T08:04:35.119Z,96624.97
2018-07-25T08:08:00.027Z,96626.14
2018-07-25T08:11:24.786Z,96629.45
2018-07-25T08:14:49.428Z,96636.09
2018-07-25T08:18:14.214Z,96627.78
2018-07-25T08:21:38.945Z,96636.39
2018-07-25T08:25:03.597Z,96640.86
2018-07-25T08:28:28.419Z,96638.86
2018-07-25T08:31:52.790Z,96634.89
2018-07-25T08:35:17.479Z,96640.03
2018-07-25T08:38:42.893Z,96635.03
2018-07-25T08:42:07.571Z,96633.00
2018-07-25T08:45:32.343Z,96631.44
2018-07-25T08:48:57.101Z,96633.95
2018-07-25T08:52:22.068Z,96634.97
2018-07-25T08:55:46.808Z,96627.91
2018-07-25T08:59:11.538Z,96631.09
2018-07-25T09:02:36.315Z,96628.70
2018-07-25T09:06:01.128Z,96625.25
2018-07-25T09:09:25.830Z,96622.42
2018-07-25T09:12:50.289Z,96627.81
2018-07-25T09:16:14.939Z,96629.19
2018-07-25T09:19:39.766Z,96628.29
2018-07-25T09:23:04.478Z,96619.38
2018-07-25T09:26:29.288Z,96619.90
2018-07-25T09:29:53.900Z,96625.13
2018-07-25T09:33:18.635Z,96618.27
2018-07-25T09:36:43.340Z,96621.59
2018-07-25T09:40:08.178Z,96620.12
2018-07-25T09:43:32.950Z,96619.47
2018-07-25T09:46:57.705Z,96614.82
2018-07-25T09:50:22.333Z,96608.34
2018-07-25T09:53:47.030Z,96609.77
2018-07-25T09:57:11.856Z,96606.30
2018-07-25T10:00:41.839Z,96610.05
2018-07-25T10:04:06.643Z,96603.52
2018-07-25T10:07:31.368Z,96597.59
2018-07-25T10:10:56.096Z,96597.36
2018-07-25T10:14:20.801Z,96591.89
2018-07-25T10:17:45.505Z,96590.84
2018-07-25T10:21:10.311Z,96590.09
2018-07-25T10:24:34.709Z,96590.52
2018-07-25T10:27:59.632Z,96583.41
2018-07-25T10:31:24.365Z,96580.50
2018-07-25T10:34:49.019Z,96580.22
2018-07-25T10:38:13.721Z,96581.34
2018-07-25T10:41:38.445Z,96577.81
2018-07-25T10:45:03.125Z,96578.89
2018-07-25T10:48:27.781Z,96577.35
2018-07-25T10:51:52.512Z,96565.00
2018-07-25T10:55:17.187Z,96569.16
2018-07-25T10:58:41.879Z,96567.23
2018-07-25T11:02:08.208Z,96559.45
2018-07-25T11:05:32.847Z,96555.22
2018-07-25T11:08:57.571Z,96556.86
2018-07-25T11:12:22.410Z,96552.72
2018-07-25T11:15:47.093Z,96550.75
2018-07-25T11:19:11.741Z,96543.48
2018-07-25T11:22:36.073Z,96539.84
2018-07-25T11:26:00.701Z,96532.50
2018-07-25T11:29:25.370Z,96528.73
2018-07-25T11:32:50.128Z,96529.95
2018-07-25T11:36:14.845Z,96524.46
2018-07-25T11:39:39.479Z,96521.52
2018-07-25T11:43:04.401Z,96531.41
2018-07-25T11:46:29.094Z,96525.44
2018-07-25T11:49:53.807Z,96523.55
2018-07-25T11:53:19.635Z,96514.95
2018-07-25T11:56:44.320Z,96507.88
2018-07-25T12:00:09.151Z,96512.87
2018-07-25T12:03:33.950Z,96503.67
2018-07-25T12:10:23.415Z,96505.70
2018-07-25T12:13:48.073Z,96502.33
2018-07-25T12:17:12.871Z,96499.05
2018-07-25T12:20:37.688Z,96508.32
2018-07-25T12:24:02.492Z,96509.27
2018-07-25T12:27:27.187Z,96503.95
2018-07-25T12:30:51.881Z,96503.88
2018-07-25T12:34:16.604Z,96506.00
2018-07-25T12:37:40.972Z,96500.67
2018-07-25T12:41:05.736Z,96499.73
2018-07-25T12:44:30.501Z,96501.30
2018-07-25T12:47:55.292Z,96494.33
2018-07-25T12:51:20.051Z,96486.83
2018-07-25T12:54:45.276Z,96483.77
2018-07-25T12:58:10.007Z,96487.70
2018-07-25T13:01:34.789Z,96481.88
2018-07-25T13:04:59.485Z,96480.47
2018-07-25T13:08:24.334Z,96471.72
2018-07-25T13:11:49.041Z,96472.42
2018-07-25T13:15:13.762Z,96472.73
2018-07-25T13:18:38.753Z,96470.16
2018-07-25T13:22:03.576Z,96475.61
2018-07-25T13:25:28.481Z,96465.85
2018-07-25T13:28:53.334Z,96462.75
2018-07-25T13:32:17.907Z,96456.53
2018-07-25T13:35:42.639Z,96451.95
2018-07-25T13:39:09.190Z,96457.39
2018-07-25T13:42:33.924Z,96454.80
2018-07-25T13:45:58.822Z,96454.00
2018-07-25T13:49:24.281Z,96452.69
2018-07-25T13:52:49.027Z,96454.82
2018-07-25T13:56:13.692Z,96451.14
2018-07-25T13:59:38.407Z,96435.44
2018-07-25T14:03:03.267Z,96432.55
2018-07-25T14:06:27.970Z,96440.02
2018-07-25T14:09:52.686Z,96435.77
2018-07-25T14:13:17.385Z,96417.97
2018-07-25T14:16:42.164Z,96415.11
2018-07-25T14:20:06.853Z,96416.26
2018-07-25T14:23:31.655Z,96413.59
2018-07-25T14:26:56.369Z,96411.68
2018-07-25T14:30:21.268Z,96402.09
2018-07-25T14:33:45.552Z,96410.00
2018-07-25T14:37:10.265Z,96403.61
2018-07-25T14:40:34.979Z,96405.54
2018-07-25T14:43:59.656Z,96404.22
2018-07-25T14:47:24.466Z,96402.47
2018-07-25T14:50:49.163Z,96394.46
2018-07-25T14:54:13.940Z,96393.66
2018-07-25T14:57:38.683Z,96395.46
2018-07-25T15:01:03.486Z,96401.77
2018-07-25T15:04:28.124Z,96402.68
2018-07-25T15:07:52.833Z,96401.44
2018-07-25T15:11:17.595Z,96403.04
2018-07-25T15:14:42.259Z,96399.40
2018-07-25T15:18:07.059Z,96406.09
2018-07-25T15:21:31.425Z,96396.45
2018-07-25T15:24:56.110Z,96400.16
2018-07-25T15:28:20.916Z,96404.87
2018-07-25T15:31:45.555Z,96392.55
2018-07-25T15:35:10.856Z,96385.12
2018-07-25T15:38:35.657Z,96391.34
2018-07-25T15:42:00.433Z,96393.47
2018-07-25T15:45:25.223Z,96387.34
2018-07-25T15:48:50.028Z,96385.55
2018-07-25T15:52:14.819Z,96383.70
2018-07-25T15:55:39.528Z,96388.00
2018-07-25T15:59:04.637Z,96390.68
2018-07-25T16:02:29.390Z,96383.31
2018-07-25T16:05:53.790Z,96382.49
2018-07-25T16:09:18.473Z,96377.22
2018-07-25T16:12:43.317Z,96381.69
2018-07-25T16:16:08.577Z,96376.77
2018-07-25T16:19:33.319Z,96367.23
2018-07-25T16:22:58.053Z,96366.54
2018-07-25T16:26:22.799Z,96370.12
2018-07-25T16:29:47.482Z,96362.67
2018-07-25T16:33:12.128Z,96370.40
2018-07-25T16:36:36.871Z,96368.69
2018-07-25T16:40:01.500Z,96362.73
2018-07-25T16:43:26.378Z,96370.92
2018-07-25T16:46:51.187Z,96371.00
2018-07-25T16:50:15.987Z,96373.34
2018-07-25T16:53:40.707Z,96365.72
2018-07-25T16:57:05.676Z,96360.33
2018-07-25T17:00:30.523Z,96366.74
2018-07-25T17:03:55.229Z,96361.49
2018-07-25T17:07:20.060Z,96365.81
2018-07-25T17:10:44.852Z,96369.56
2018-07-25T17:14:09.658Z,96373.58
2018-07-25T17:17:34.390Z,96369.75
2018-07-25T17:20:59.129Z,96371.20
2018-07-25T17:24:24.051Z,96379.28
2018-07-25T17:27:48.780Z,96370.46
2018-07-25T17:31:13.532Z,96385.25
2018-07-25T17:34:38.235Z,96375.73
2018-07-25T17:38:02.969Z,96379.02
2018-07-25T17:41:27.838Z,96387.59
2018-07-25T17:44:52.429Z,96383.73
2018-07-25T17:48:17.135Z,96388.33
2018-07-25T17:51:41.823Z,96387.50
2018-07-25T17:55:06.671Z,96393.02
2018-07-25T17:58:31.477Z,96394.95
2018-07-25T18:01:56.298Z,96390.50
2018-07-25T18:05:21.058Z,96389.23
2018-07-25T18:08:45.881Z,96381.44
2018-07-25T18:12:10.770Z,96391.69
2018-07-25T18:15:35.561Z,96397.01
2018-07-25T18:19:00.240Z,96398.56
2018-07-25T18:22:24.917Z,96399.48
2018-07-25T18:25:49.627Z,96396.41
2018-07-25T18:29:14.379Z,96402.24
2018-07-25T18:32:39.102Z,96401.38
2018-07-25T18:36:04.751Z,96404.52
2018-07-25T18:39:29.618Z,96407.66
2018-07-25T18:42:54.308Z,96402.40
2018-07-25T18:46:19.501Z,96413.70
2018-07-25T18:49:44.339Z,96410.26
2018-07-25T18:53:09.048Z,96419.32
2018-07-25T18:56:33.748Z,96416.63
2018-07-25T18:59:58.534Z,96417.05
2018-07-25T19:03:23.342Z,96419.72
2018-07-25T19:06:47.717Z,96420.94
2018-07-25T19:10:12.355Z,96418.78
2018-07-25T19:13:37.233Z,96425.41
2018-07-25T19:17:02.185Z,96430.62
2018-07-25T19:20:27.298Z,96434.48
2018-07-25T19:23:52.055Z,96437.22
2018-07-25T19:27:16.940Z,96445.98
2018-07-25T19:30:41.648Z,96450.54
2018-07-25T19:34:06.271Z,96451.63
2018-07-25T19:37:30.941Z,96458.41
2018-07-25T19:40:55.943Z,96460.41
2018-07-25T19:44:20.896Z,96459.41
2018-07-25T19:47:45.265Z,96461.56
2018-07-25T19:51:10.259Z,96467.77
2018-07-25T19:54:35.292Z,96470.46
2018-07-25T19:58:00.051Z,96472.01
2018-07-25T20:01:24.974Z,96471.91
2018-07-25T20:04:49.666Z,96474.44
2018-07-25T20:08:14.388Z,96474.34
2018-07-25T20:11:39.557Z,96479.33
2018-07-25T20:15:09.990Z,96479.59
2018-07-25T20:18:34.977Z,96479.59
2018-07-25T20:21:59.682Z,96475.98
2018-07-25T20:25:24.294Z,96482.08
2018-07-25T20:28:48.980Z,96483.97
2018-07-25T20:32:13.717Z,96485.63
2018-07-25T20:35:38.228Z,96482.97
2018-07-25T20:39:03.204Z,96485.35
2018-07-25T20:42:28.424Z,96486.19
2018-07-25T20:45:53.166Z,96483.77
2018-07-25T20:49:17.978Z,96478.19
2018-07-25T20:52:43.131Z,96478.23
2018-07-25T20:56:07.862Z,96498.23
2018-07-25T20:59:32.950Z,96504.38
2018-07-25T21:02:57.936Z,96503.61
2018-07-25T21:06:22.737Z,96505.63
2018-07-25T21:09:47.422Z,96511.95
2018-07-25T21:13:12.226Z,96513.97
2018-07-25T21:16:36.656Z,96517.01
2018-07-25T21:20:00.223Z,96521.67
2018-07-25T21:23:24.893Z,96525.98
2018-07-25T21:26:49.604Z,96516.92
2018-07-25T21:30:14.312Z,96519.73
2018-07-25T21:33:38.918Z,96524.69
2018-07-25T21:37:03.701Z,96521.27
2018-07-25T21:40:28.079Z,96520.08
2018-07-25T21:43:52.786Z,96518.59
2018-07-25T21:47:17.190Z,96520.80
2018-07-25T21:50:41.900Z,96523.59
2018-07-25T21:54:06.453Z,96525.60
2018-07-25T21:57:31.107Z,96518.75
2018-07-25T22:01:00.659Z,96521.94
2018-07-25T22:04:25.368Z,96518.98
2018-07-25T22:07:49.287Z,96516.80
2018-07-25T22:11:13.183Z,96514.97
2018-07-25T22:14:37.168Z,96515.48
2018-07-25T22:18:01.875Z,96521.44
2018-07-25T22:21:26.668Z,96517.77
2018-07-25T22:24:51.427Z,96516.97
2018-07-25T22:28:15.321Z,96510.49
2018-07-25T22:31:40.022Z,96512.14
2018-07-25T22:35:04.850Z,96514.78
2018-07-25T22:38:29.527Z,96517.75
2018-07-25T22:41:54.285Z,96515.02
2018-07-25T22:45:19.027Z,96509.72
2018-07-25T22:48:43.669Z,96509.28
2018-07-25T22:52:08.368Z,96505.22
2018-07-25T22:55:33.062Z,96512.68
2018-07-25T22:58:57.760Z,96504.56
2018-07-25T23:02:22.455Z,96507.70
2018-07-25T23:05:47.158Z,96502.08
2018-07-25T23:09:12.389Z,96504.66
2018-07-25T23:12:37.074Z,96507.30
2018-07-25T23:16:01.861Z,96504.28
2018-07-25T23:19:26.619Z,96500.69
2018-07-25T23:23:01.538Z,96496.42
2018-07-25T23:26:26.307Z,96492.52
2018-07-25T23:29:50.987Z,96495.46
2018-07-25T23:33:15.699Z,96497.00
2018-07-25T23:36:41.660Z,96497.53
2018-07-25T23:40:06.365Z,96502.34
2018-07-25T23:43:30.222Z,96491.81
2018-07-25T23:46:54.873Z,96486.89
2018-07-25T23:50:19.242Z,96488.75
2018-07-25T23:53:44.110Z,96486.49
2018-07-25T23:57:08.514Z,96484.20
